sensor_id;sensor_type;location;lat;lon;timestamp;pressure;altitude;pressure_sealevel;temperature;humidity
60642;BME280;46837;52.446;-1.930;2023-11-21T00:00:13;100223.08;;;10.68;88.95
60642;BME280;46837;52.446;-1.930;2023-11-21T00:01:09;100225.32;;;10.66;88.78
60642;BME280;46837;52.446;-1.930;2023-11-21T00:02:09;100223.58;;;10.67;88.94
60642;BME280;46837;52.446;-1.930;2023-11-21T00:03:09;100222.88;;;10.70;88.94
60642;BME280;46837;52.446;-1.930;2023-11-21T00:04:10;100223.21;;;10.70;88.73
60642;BME280;46837;52.446;-1.930;2023-11-21T00:05:10;100224.52;;;10.70;88.75
60642;BME280;46837;52.446;-1.930;2023-11-21T00:06:11;100225.02;;;10.70;88.77
60642;BME280;46837;52.446;-1.930;2023-11-21T00:07:09;100227.95;;;10.71;88.76
60642;BME280;46837;52.446;-1.930;2023-11-21T00:08:09;100227.24;;;10.71;88.66
60642;BME280;46837;52.446;-1.930;2023-11-21T00:09:09;100229.28;;;10.73;88.70
60642;BME280;46837;52.446;-1.930;2023-11-21T00:10:09;100230.58;;;10.74;88.56
60642;BME280;46837;52.446;-1.930;2023-11-21T00:11:09;100225.84;;;10.75;88.51
60642;BME280;46837;52.446;-1.930;2023-11-21T00:12:09;100227.41;;;10.74;88.37
60642;BME280;46837;52.446;-1.930;2023-11-21T00:13:09;100227.58;;;10.74;88.44
60642;BME280;46837;52.446;-1.930;2023-11-21T00:14:09;100231.57;;;10.75;88.43
60642;BME280;46837;52.446;-1.930;2023-11-21T00:15:14;100230.27;;;10.73;88.44
60642;BME280;46837;52.446;-1.930;2023-11-21T00:16:09;100229.44;;;10.75;88.49
60642;BME280;46837;52.446;-1.930;2023-11-21T00:17:09;100234.57;;;10.74;88.39
60642;BME280;46837;52.446;-1.930;2023-11-21T00:18:09;100238.45;;;10.74;88.42
60642;BME280;46837;52.446;-1.930;2023-11-21T00:19:09;100239.62;;;10.74;88.41
60642;BME280;46837;52.446;-1.930;2023-11-21T00:20:09;100246.01;;;10.74;88.45
60642;BME280;46837;52.446;-1.930;2023-11-21T00:21:09;100246.28;;;10.75;88.44
60642;BME280;46837;52.446;-1.930;2023-11-21T00:22:09;100250.21;;;10.74;88.41
60642;BME280;46837;52.446;-1.930;2023-11-21T00:23:09;100250.92;;;10.75;88.41
60642;BME280;46837;52.446;-1.930;2023-11-21T00:24:09;100251.41;;;10.75;88.35
60642;BME280;46837;52.446;-1.930;2023-11-21T00:25:09;100257.43;;;10.75;88.37
60642;BME280;46837;52.446;-1.930;2023-11-21T00:26:09;100261.22;;;10.77;88.45
60642;BME280;46837;52.446;-1.930;2023-11-21T00:27:09;100266.31;;;10.80;88.50
60642;BME280;46837;52.446;-1.930;2023-11-21T00:28:09;100265.55;;;10.80;88.31
60642;BME280;46837;52.446;-1.930;2023-11-21T00:29:11;100264.73;;;10.80;88.33
60642;BME280;46837;52.446;-1.930;2023-11-21T00:30:09;100265.94;;;10.81;88.34
60642;BME280;46837;52.446;-1.930;2023-11-21T00:31:09;100268.04;;;10.75;88.33
60642;BME280;46837;52.446;-1.930;2023-11-21T00:32:09;100268.14;;;10.75;88.55
60642;BME280;46837;52.446;-1.930;2023-11-21T00:33:09;100267.61;;;10.77;88.57
60642;BME280;46837;52.446;-1.930;2023-11-21T00:34:11;100269.19;;;10.78;88.46
60642;BME280;46837;52.446;-1.930;2023-11-21T00:35:09;100268.02;;;10.72;88.40
60642;BME280;46837;52.446;-1.930;2023-11-21T00:36:12;100267.31;;;10.71;88.66
60642;BME280;46837;52.446;-1.930;2023-11-21T00:37:09;100266.89;;;10.73;88.65
60642;BME280;46837;52.446;-1.930;2023-11-21T00:38:09;100273.32;;;10.74;88.55
60642;BME280;46837;52.446;-1.930;2023-11-21T00:39:09;100272.78;;;10.74;88.47
60642;BME280;46837;52.446;-1.930;2023-11-21T00:40:09;100275.42;;;10.73;88.44
60642;BME280;46837;52.446;-1.930;2023-11-21T00:41:09;100272.55;;;10.69;88.49
60642;BME280;46837;52.446;-1.930;2023-11-21T00:42:09;100275.19;;;10.70;88.70
60642;BME280;46837;52.446;-1.930;2023-11-21T00:43:09;100273.16;;;10.72;88.63
60642;BME280;46837;52.446;-1.930;2023-11-21T00:44:09;100273.60;;;10.72;88.59
60642;BME280;46837;52.446;-1.930;2023-11-21T00:45:09;100271.68;;;10.72;88.60
60642;BME280;46837;52.446;-1.930;2023-11-21T00:46:10;100271.68;;;10.72;88.66
60642;BME280;46837;52.446;-1.930;2023-11-21T00:47:09;100274.46;;;10.71;88.61
60642;BME280;46837;52.446;-1.930;2023-11-21T00:48:09;100274.81;;;10.73;88.65
60642;BME280;46837;52.446;-1.930;2023-11-21T00:49:09;100276.45;;;10.75;88.59
60642;BME280;46837;52.446;-1.930;2023-11-21T00:50:09;100279.99;;;10.69;88.66
60642;BME280;46837;52.446;-1.930;2023-11-21T00:51:09;100280.21;;;10.70;88.77
60642;BME280;46837;52.446;-1.930;2023-11-21T00:52:09;100283.17;;;10.72;88.77
60642;BME280;46837;52.446;-1.930;2023-11-21T00:53:09;100282.84;;;10.75;88.65
60642;BME280;46837;52.446;-1.930;2023-11-21T00:54:09;100284.51;;;10.77;88.60
60642;BME280;46837;52.446;-1.930;2023-11-21T00:55:10;100282.96;;;10.75;88.49
60642;BME280;46837;52.446;-1.930;2023-11-21T00:56:09;100287.60;;;10.75;88.46
60642;BME280;46837;52.446;-1.930;2023-11-21T00:57:09;100284.93;;;10.75;88.59
60642;BME280;46837;52.446;-1.930;2023-11-21T00:58:09;100285.82;;;10.77;88.64
60642;BME280;46837;52.446;-1.930;2023-11-21T00:59:09;100290.08;;;10.77;88.46
60642;BME280;46837;52.446;-1.930;2023-11-21T01:00:16;100289.80;;;10.76;88.49
60642;BME280;46837;52.446;-1.930;2023-11-21T01:01:09;100288.60;;;10.78;88.49
60642;BME280;46837;52.446;-1.930;2023-11-21T01:02:09;100291.39;;;10.82;88.39
60642;BME280;46837;52.446;-1.930;2023-11-21T01:03:09;100294.80;;;10.83;88.26
60642;BME280;46837;52.446;-1.930;2023-11-21T01:04:09;100294.32;;;10.84;88.12
60642;BME280;46837;52.446;-1.930;2023-11-21T01:05:10;100296.65;;;10.82;88.07
60642;BME280;46837;52.446;-1.930;2023-11-21T01:06:10;100295.23;;;10.85;88.21
60642;BME280;46837;52.446;-1.930;2023-11-21T01:07:09;100299.45;;;10.86;88.10
60642;BME280;46837;52.446;-1.930;2023-11-21T01:08:09;100301.20;;;10.86;88.01
60642;BME280;46837;52.446;-1.930;2023-11-21T01:09:11;100304.25;;;10.85;88.01
60642;BME280;46837;52.446;-1.930;2023-11-21T01:10:10;100304.64;;;10.85;88.01
60642;BME280;46837;52.446;-1.930;2023-11-21T01:11:10;100309.24;;;10.86;88.00
60642;BME280;46837;52.446;-1.930;2023-11-21T01:12:09;100305.58;;;10.84;87.93
60642;BME280;46837;52.446;-1.930;2023-11-21T01:13:09;100307.70;;;10.85;87.97
60642;BME280;46837;52.446;-1.930;2023-11-21T01:14:09;100313.06;;;10.83;87.87
60642;BME280;46837;52.446;-1.930;2023-11-21T01:15:10;100312.94;;;10.82;88.01
60642;BME280;46837;52.446;-1.930;2023-11-21T01:16:09;100314.48;;;10.83;88.06
60642;BME280;46837;52.446;-1.930;2023-11-21T01:17:09;100320.55;;;10.83;87.94
60642;BME280;46837;52.446;-1.930;2023-11-21T01:18:09;100320.84;;;10.84;87.97
60642;BME280;46837;52.446;-1.930;2023-11-21T01:19:09;100321.75;;;10.83;87.93
60642;BME280;46837;52.446;-1.930;2023-11-21T01:20:15;100322.45;;;10.80;87.96
60642;BME280;46837;52.446;-1.930;2023-11-21T01:21:09;100325.63;;;10.85;88.19
60642;BME280;46837;52.446;-1.930;2023-11-21T01:22:09;100325.91;;;10.85;87.91
60642;BME280;46837;52.446;-1.930;2023-11-21T01:23:09;100325.53;;;10.86;87.86
60642;BME280;46837;52.446;-1.930;2023-11-21T01:24:10;100325.31;;;10.86;87.90
60642;BME280;46837;52.446;-1.930;2023-11-21T01:25:10;100327.17;;;10.84;87.81
60642;BME280;46837;52.446;-1.930;2023-11-21T01:26:09;100332.33;;;10.77;88.22
60642;BME280;46837;52.446;-1.930;2023-11-21T01:27:09;100332.41;;;10.81;88.27
60642;BME280;46837;52.446;-1.930;2023-11-21T01:28:09;100335.63;;;10.83;88.04
60642;BME280;46837;52.446;-1.930;2023-11-21T01:29:09;100336.79;;;10.84;88.00
60642;BME280;46837;52.446;-1.930;2023-11-21T01:30:10;100344.23;;;10.86;87.91
60642;BME280;46837;52.446;-1.930;2023-11-21T01:31:09;100344.02;;;10.87;87.92
60642;BME280;46837;52.446;-1.930;2023-11-21T01:32:09;100345.11;;;10.88;87.82
60642;BME280;46837;52.446;-1.930;2023-11-21T01:33:09;100345.07;;;10.90;87.82
60642;BME280;46837;52.446;-1.930;2023-11-21T01:34:09;100344.73;;;10.87;87.65
60642;BME280;46837;52.446;-1.930;2023-11-21T01:35:09;100346.46;;;10.85;87.71
60642;BME280;46837;52.446;-1.930;2023-11-21T01:36:09;100348.56;;;10.87;87.80
60642;BME280;46837;52.446;-1.930;2023-11-21T01:37:09;100351.50;;;10.86;87.68
60642;BME280;46837;52.446;-1.930;2023-11-21T01:38:10;100352.18;;;10.81;87.77
60642;BME280;46837;52.446;-1.930;2023-11-21T01:39:11;100357.76;;;10.82;87.84
60642;BME280;46837;52.446;-1.930;2023-11-21T01:40:12;100362.19;;;10.82;87.83
60642;BME280;46837;52.446;-1.930;2023-11-21T01:41:09;100366.11;;;10.79;87.70
60642;BME280;46837;52.446;-1.930;2023-11-21T01:42:09;100367.70;;;10.79;87.84
60642;BME280;46837;52.446;-1.930;2023-11-21T01:43:09;100378.29;;;10.78;87.80
60642;BME280;46837;52.446;-1.930;2023-11-21T01:44:10;100375.03;;;10.77;87.79
60642;BME280;46837;52.446;-1.930;2023-11-21T01:45:09;100377.75;;;10.76;87.75
60642;BME280;46837;52.446;-1.930;2023-11-21T01:46:09;100379.00;;;10.75;87.79
60642;BME280;46837;52.446;-1.930;2023-11-21T01:47:09;100369.87;;;10.75;87.71
60642;BME280;46837;52.446;-1.930;2023-11-21T01:48:09;100378.80;;;10.79;87.79
60642;BME280;46837;52.446;-1.930;2023-11-21T01:49:09;100381.09;;;10.78;87.56
60642;BME280;46837;52.446;-1.930;2023-11-21T01:50:09;100381.41;;;10.77;87.63
60642;BME280;46837;52.446;-1.930;2023-11-21T01:51:09;100382.50;;;10.75;87.62
60642;BME280;46837;52.446;-1.930;2023-11-21T01:52:09;100386.03;;;10.74;87.69
60642;BME280;46837;52.446;-1.930;2023-11-21T01:53:10;100391.57;;;10.73;87.60
60642;BME280;46837;52.446;-1.930;2023-11-21T01:54:09;100390.30;;;10.74;87.67
60642;BME280;46837;52.446;-1.930;2023-11-21T01:55:09;100396.36;;;10.74;87.65
60642;BME280;46837;52.446;-1.930;2023-11-21T01:56:10;100398.25;;;10.77;87.62
60642;BME280;46837;52.446;-1.930;2023-11-21T01:57:09;100398.23;;;10.75;87.45
60642;BME280;46837;52.446;-1.930;2023-11-21T01:58:09;100399.25;;;10.72;87.53
60642;BME280;46837;52.446;-1.930;2023-11-21T01:59:10;100400.40;;;10.70;87.68
60642;BME280;46837;52.446;-1.930;2023-11-21T02:00:13;100404.40;;;10.74;87.77
60642;BME280;46837;52.446;-1.930;2023-11-21T02:01:09;100404.40;;;10.74;87.58
60642;BME280;46837;52.446;-1.930;2023-11-21T02:02:09;100404.70;;;10.76;87.59
60642;BME280;46837;52.446;-1.930;2023-11-21T02:03:09;100409.41;;;10.79;87.55
60642;BME280;46837;52.446;-1.930;2023-11-21T02:04:09;100410.13;;;10.80;87.43
60642;BME280;46837;52.446;-1.930;2023-11-21T02:05:09;100412.92;;;10.80;87.38
60642;BME280;46837;52.446;-1.930;2023-11-21T02:06:09;100416.09;;;10.81;87.23
60642;BME280;46837;52.446;-1.930;2023-11-21T02:07:11;100412.70;;;10.82;87.12
60642;BME280;46837;52.446;-1.930;2023-11-21T02:08:09;100416.50;;;10.84;87.14
60642;BME280;46837;52.446;-1.930;2023-11-21T02:09:09;100421.10;;;10.84;86.98
60642;BME280;46837;52.446;-1.930;2023-11-21T02:10:09;100418.59;;;10.77;87.05
60642;BME280;46837;52.446;-1.930;2023-11-21T02:11:09;100418.99;;;10.80;87.27
60642;BME280;46837;52.446;-1.930;2023-11-21T02:12:09;100422.26;;;10.79;87.13
60642;BME280;46837;52.446;-1.930;2023-11-21T02:13:09;100424.69;;;10.83;87.25
60642;BME280;46837;52.446;-1.930;2023-11-21T02:14:10;100424.37;;;10.83;87.12
60642;BME280;46837;52.446;-1.930;2023-11-21T02:15:13;100422.26;;;10.87;87.15
60642;BME280;46837;52.446;-1.930;2023-11-21T02:16:09;100429.53;;;10.89;86.98
60642;BME280;46837;52.446;-1.930;2023-11-21T02:17:09;100427.56;;;10.87;86.86
60642;BME280;46837;52.446;-1.930;2023-11-21T02:18:09;100430.02;;;10.89;87.02
60642;BME280;46837;52.446;-1.930;2023-11-21T02:19:09;100433.09;;;10.89;86.92
60642;BME280;46837;52.446;-1.930;2023-11-21T02:20:12;100429.62;;;10.86;86.91
60642;BME280;46837;52.446;-1.930;2023-11-21T02:21:09;100431.01;;;10.87;87.02
60642;BME280;46837;52.446;-1.930;2023-11-21T02:22:09;100434.35;;;10.88;86.86
60642;BME280;46837;52.446;-1.930;2023-11-21T02:23:09;100430.12;;;10.87;86.86
60642;BME280;46837;52.446;-1.930;2023-11-21T02:24:09;100433.13;;;10.88;86.83
60642;BME280;46837;52.446;-1.930;2023-11-21T02:25:09;100432.71;;;10.88;86.84
60642;BME280;46837;52.446;-1.930;2023-11-21T02:26:09;100435.32;;;10.87;86.81
60642;BME280;46837;52.446;-1.930;2023-11-21T02:27:10;100434.56;;;10.87;86.94
60642;BME280;46837;52.446;-1.930;2023-11-21T02:28:09;100434.72;;;10.87;86.81
60642;BME280;46837;52.446;-1.930;2023-11-21T02:29:09;100439.03;;;10.84;86.80
60642;BME280;46837;52.446;-1.930;2023-11-21T02:30:09;100439.16;;;10.82;86.79
60642;BME280;46837;52.446;-1.930;2023-11-21T02:31:09;100439.13;;;10.83;86.90
60642;BME280;46837;52.446;-1.930;2023-11-21T02:32:09;100444.85;;;10.82;86.84
60642;BME280;46837;52.446;-1.930;2023-11-21T02:33:09;100444.66;;;10.77;86.75
60642;BME280;46837;52.446;-1.930;2023-11-21T02:34:09;100436.69;;;10.77;86.77
60642;BME280;46837;52.446;-1.930;2023-11-21T02:35:10;100439.72;;;10.73;86.29
60642;BME280;46837;52.446;-1.930;2023-11-21T02:36:09;100438.38;;;10.69;86.14
60642;BME280;46837;52.446;-1.930;2023-11-21T02:37:09;100440.69;;;10.72;86.24
60642;BME280;46837;52.446;-1.930;2023-11-21T02:38:09;100434.39;;;10.71;86.03
60642;BME280;46837;52.446;-1.930;2023-11-21T02:39:10;100432.50;;;10.65;85.66
60642;BME280;46837;52.446;-1.930;2023-11-21T02:40:12;100437.10;;;10.66;85.72
60642;BME280;46837;52.446;-1.930;2023-11-21T02:41:09;100430.64;;;10.67;85.50
60642;BME280;46837;52.446;-1.930;2023-11-21T02:42:09;100438.80;;;10.68;85.22
60642;BME280;46837;52.446;-1.930;2023-11-21T02:43:09;100440.49;;;10.66;84.82
60642;BME280;46837;52.446;-1.930;2023-11-21T02:44:09;100444.71;;;10.61;84.26
60642;BME280;46837;52.446;-1.930;2023-11-21T02:45:09;100452.22;;;10.55;83.94
60642;BME280;46837;52.446;-1.930;2023-11-21T02:46:09;100449.70;;;10.55;83.91
60642;BME280;46837;52.446;-1.930;2023-11-21T02:47:09;100450.87;;;10.58;83.83
60642;BME280;46837;52.446;-1.930;2023-11-21T02:48:09;100455.23;;;10.56;83.38
60642;BME280;46837;52.446;-1.930;2023-11-21T02:49:13;100455.34;;;10.57;83.36
60642;BME280;46837;52.446;-1.930;2023-11-21T02:50:09;100453.06;;;10.59;83.20
60642;BME280;46837;52.446;-1.930;2023-11-21T02:51:09;100455.57;;;10.60;83.00
60642;BME280;46837;52.446;-1.930;2023-11-21T02:52:09;100453.25;;;10.64;83.08
60642;BME280;46837;52.446;-1.930;2023-11-21T02:53:11;100455.29;;;10.63;82.70
60642;BME280;46837;52.446;-1.930;2023-11-21T02:54:09;100458.55;;;10.62;82.58
60642;BME280;46837;52.446;-1.930;2023-11-21T02:55:09;100457.73;;;10.62;82.44
60642;BME280;46837;52.446;-1.930;2023-11-21T02:56:09;100457.66;;;10.59;82.07
60642;BME280;46837;52.446;-1.930;2023-11-21T02:57:09;100459.37;;;10.63;82.19
60642;BME280;46837;52.446;-1.930;2023-11-21T02:58:09;100466.23;;;10.66;82.15
60642;BME280;46837;52.446;-1.930;2023-11-21T02:59:09;100470.04;;;10.64;81.66
60642;BME280;46837;52.446;-1.930;2023-11-21T03:00:10;100470.05;;;10.56;81.03
60642;BME280;46837;52.446;-1.930;2023-11-21T03:01:09;100475.14;;;10.59;81.11
60642;BME280;46837;52.446;-1.930;2023-11-21T03:02:11;100481.41;;;10.56;80.74
60642;BME280;46837;52.446;-1.930;2023-11-21T03:03:09;100480.98;;;10.58;81.01
60642;BME280;46837;52.446;-1.930;2023-11-21T03:04:09;100484.90;;;10.57;80.92
60642;BME280;46837;52.446;-1.930;2023-11-21T03:05:09;100485.71;;;10.57;80.97
60642;BME280;46837;52.446;-1.930;2023-11-21T03:06:09;100492.88;;;10.57;80.89
60642;BME280;46837;52.446;-1.930;2023-11-21T03:07:09;100495.86;;;10.54;80.68
60642;BME280;46837;52.446;-1.930;2023-11-21T03:08:09;100498.66;;;10.55;80.73
60642;BME280;46837;52.446;-1.930;2023-11-21T03:09:09;100500.75;;;10.56;80.68
60642;BME280;46837;52.446;-1.930;2023-11-21T03:10:09;100505.34;;;10.50;80.41
60642;BME280;46837;52.446;-1.930;2023-11-21T03:11:09;100505.19;;;10.52;80.59
60642;BME280;46837;52.446;-1.930;2023-11-21T03:12:09;100499.65;;;10.50;80.45
60642;BME280;46837;52.446;-1.930;2023-11-21T03:13:09;100504.46;;;10.49;80.29
60642;BME280;46837;52.446;-1.930;2023-11-21T03:14:09;100508.04;;;10.47;80.22
60642;BME280;46837;52.446;-1.930;2023-11-21T03:15:09;100507.06;;;10.47;80.29
60642;BME280;46837;52.446;-1.930;2023-11-21T03:16:09;100502.08;;;10.39;80.00
60642;BME280;46837;52.446;-1.930;2023-11-21T03:17:09;100502.88;;;10.39;80.12
60642;BME280;46837;52.446;-1.930;2023-11-21T03:18:09;100500.66;;;10.40;80.08
60642;BME280;46837;52.446;-1.930;2023-11-21T03:19:09;100499.31;;;10.41;80.20
60642;BME280;46837;52.446;-1.930;2023-11-21T03:20:09;100501.75;;;10.40;80.01
60642;BME280;46837;52.446;-1.930;2023-11-21T03:21:09;100497.72;;;10.41;79.93
60642;BME280;46837;52.446;-1.930;2023-11-21T03:22:09;100504.29;;;10.37;79.64
60642;BME280;46837;52.446;-1.930;2023-11-21T03:23:09;100503.71;;;10.38;79.74
60642;BME280;46837;52.446;-1.930;2023-11-21T03:24:09;100507.82;;;10.39;79.80
60642;BME280;46837;52.446;-1.930;2023-11-21T03:25:09;100508.36;;;10.38;79.71
60642;BME280;46837;52.446;-1.930;2023-11-21T03:26:12;100513.70;;;10.37;79.58
60642;BME280;46837;52.446;-1.930;2023-11-21T03:27:09;100512.52;;;10.34;79.46
60642;BME280;46837;52.446;-1.930;2023-11-21T03:28:09;100513.04;;;10.31;79.45
60642;BME280;46837;52.446;-1.930;2023-11-21T03:29:09;100516.64;;;10.31;79.32
60642;BME280;46837;52.446;-1.930;2023-11-21T03:30:09;100521.62;;;10.32;79.41
60642;BME280;46837;52.446;-1.930;2023-11-21T03:31:09;100525.59;;;10.31;79.22
60642;BME280;46837;52.446;-1.930;2023-11-21T03:32:09;100534.07;;;10.33;79.21
60642;BME280;46837;52.446;-1.930;2023-11-21T03:33:09;100534.25;;;10.33;79.21
60642;BME280;46837;52.446;-1.930;2023-11-21T03:34:14;100528.88;;;10.31;78.81
60642;BME280;46837;52.446;-1.930;2023-11-21T03:35:09;100531.92;;;10.22;78.25
60642;BME280;46837;52.446;-1.930;2023-11-21T03:36:09;100530.67;;;10.23;78.57
60642;BME280;46837;52.446;-1.930;2023-11-21T03:37:09;100533.20;;;10.27;78.27
60642;BME280;46837;52.446;-1.930;2023-11-21T03:38:09;100535.23;;;10.27;78.24
60642;BME280;46837;52.446;-1.930;2023-11-21T03:39:09;100529.23;;;10.21;77.74
60642;BME280;46837;52.446;-1.930;2023-11-21T03:40:09;100524.99;;;10.18;77.82
60642;BME280;46837;52.446;-1.930;2023-11-21T03:41:09;100532.32;;;10.17;77.73
60642;BME280;46837;52.446;-1.930;2023-11-21T03:42:09;100528.21;;;10.18;77.49
60642;BME280;46837;52.446;-1.930;2023-11-21T03:43:09;100536.49;;;10.14;77.14
60642;BME280;46837;52.446;-1.930;2023-11-21T03:44:09;100535.92;;;10.07;76.74
60642;BME280;46837;52.446;-1.930;2023-11-21T03:45:09;100537.01;;;10.08;76.92
60642;BME280;46837;52.446;-1.930;2023-11-21T03:46:09;100539.77;;;10.04;76.48
60642;BME280;46837;52.446;-1.930;2023-11-21T03:47:09;100540.42;;;10.04;76.18
60642;BME280;46837;52.446;-1.930;2023-11-21T03:48:09;100534.06;;;10.02;75.96
60642;BME280;46837;52.446;-1.930;2023-11-21T03:49:09;100538.97;;;9.93;75.75
60642;BME280;46837;52.446;-1.930;2023-11-21T03:50:09;100537.18;;;9.97;76.02
60642;BME280;46837;52.446;-1.930;2023-11-21T03:51:09;100541.62;;;9.99;76.04
60642;BME280;46837;52.446;-1.930;2023-11-21T03:52:09;100539.30;;;9.92;75.21
60642;BME280;46837;52.446;-1.930;2023-11-21T03:53:09;100545.10;;;9.93;75.40
60642;BME280;46837;52.446;-1.930;2023-11-21T03:54:09;100548.08;;;9.92;75.61
60642;BME280;46837;52.446;-1.930;2023-11-21T03:55:09;100544.29;;;9.89;75.16
60642;BME280;46837;52.446;-1.930;2023-11-21T03:56:09;100550.82;;;9.92;75.22
60642;BME280;46837;52.446;-1.930;2023-11-21T03:57:09;100551.89;;;9.95;75.37
60642;BME280;46837;52.446;-1.930;2023-11-21T03:58:09;100549.30;;;9.93;75.24
60642;BME280;46837;52.446;-1.930;2023-11-21T03:59:09;100556.98;;;9.96;75.21
60642;BME280;46837;52.446;-1.930;2023-11-21T04:00:11;100553.28;;;9.96;75.03
60642;BME280;46837;52.446;-1.930;2023-11-21T04:01:09;100560.07;;;9.85;74.79
60642;BME280;46837;52.446;-1.930;2023-11-21T04:02:09;100558.32;;;9.93;75.16
60642;BME280;46837;52.446;-1.930;2023-11-21T04:03:09;100561.25;;;9.92;75.09
60642;BME280;46837;52.446;-1.930;2023-11-21T04:04:09;100568.80;;;9.95;75.33
60642;BME280;46837;52.446;-1.930;2023-11-21T04:05:09;100569.15;;;9.96;75.27
60642;BME280;46837;52.446;-1.930;2023-11-21T04:06:09;100569.78;;;9.98;75.35
60642;BME280;46837;52.446;-1.930;2023-11-21T04:07:09;100569.53;;;10.00;75.40
60642;BME280;46837;52.446;-1.930;2023-11-21T04:08:09;100572.52;;;10.00;75.51
60642;BME280;46837;52.446;-1.930;2023-11-21T04:09:09;100570.59;;;9.98;75.77
60642;BME280;46837;52.446;-1.930;2023-11-21T04:10:11;100575.77;;;9.98;76.08
60642;BME280;46837;52.446;-1.930;2023-11-21T04:11:09;100572.11;;;9.96;76.12
60642;BME280;46837;52.446;-1.930;2023-11-21T04:12:09;100576.68;;;10.00;76.24
60642;BME280;46837;52.446;-1.930;2023-11-21T04:13:09;100582.20;;;10.00;76.35
60642;BME280;46837;52.446;-1.930;2023-11-21T04:14:09;100581.95;;;9.98;76.60
60642;BME280;46837;52.446;-1.930;2023-11-21T04:15:09;100576.97;;;9.98;76.61
60642;BME280;46837;52.446;-1.930;2023-11-21T04:16:09;100582.87;;;9.98;76.63
60642;BME280;46837;52.446;-1.930;2023-11-21T04:17:09;100586.73;;;10.00;76.71
60642;BME280;46837;52.446;-1.930;2023-11-21T04:18:09;100584.90;;;10.02;76.81
60642;BME280;46837;52.446;-1.930;2023-11-21T04:19:09;100582.16;;;9.98;76.76
60642;BME280;46837;52.446;-1.930;2023-11-21T04:20:12;100579.06;;;9.99;76.74
60642;BME280;46837;52.446;-1.930;2023-11-21T04:21:09;100580.44;;;9.95;76.66
60642;BME280;46837;52.446;-1.930;2023-11-21T04:22:09;100583.30;;;9.96;76.71
60642;BME280;46837;52.446;-1.930;2023-11-21T04:23:09;100583.85;;;9.93;76.55
60642;BME280;46837;52.446;-1.930;2023-11-21T04:24:09;100586.30;;;9.98;76.60
60642;BME280;46837;52.446;-1.930;2023-11-21T04:25:11;100583.42;;;9.94;76.41
60642;BME280;46837;52.446;-1.930;2023-11-21T04:26:09;100585.28;;;9.90;76.54
60642;BME280;46837;52.446;-1.930;2023-11-21T04:27:09;100589.05;;;9.90;76.48
60642;BME280;46837;52.446;-1.930;2023-11-21T04:28:09;100584.12;;;9.88;76.41
60642;BME280;46837;52.446;-1.930;2023-11-21T04:29:09;100589.93;;;9.90;76.46
60642;BME280;46837;52.446;-1.930;2023-11-21T04:30:09;100587.73;;;9.92;76.36
60642;BME280;46837;52.446;-1.930;2023-11-21T04:31:09;100586.70;;;9.93;76.19
60642;BME280;46837;52.446;-1.930;2023-11-21T04:32:09;100587.52;;;9.90;76.11
60642;BME280;46837;52.446;-1.930;2023-11-21T04:33:09;100589.44;;;9.90;76.08
60642;BME280;46837;52.446;-1.930;2023-11-21T04:34:09;100583.01;;;9.87;75.95
60642;BME280;46837;52.446;-1.930;2023-11-21T04:35:09;100591.69;;;9.83;75.87
60642;BME280;46837;52.446;-1.930;2023-11-21T04:36:09;100592.36;;;9.78;75.67
60642;BME280;46837;52.446;-1.930;2023-11-21T04:37:09;100592.02;;;9.78;75.97
60642;BME280;46837;52.446;-1.930;2023-11-21T04:38:09;100596.50;;;9.83;76.08
60642;BME280;46837;52.446;-1.930;2023-11-21T04:39:09;100596.46;;;9.80;75.78
60642;BME280;46837;52.446;-1.930;2023-11-21T04:40:09;100589.34;;;9.78;75.70
60642;BME280;46837;52.446;-1.930;2023-11-21T04:41:09;100600.32;;;9.74;75.66
60642;BME280;46837;52.446;-1.930;2023-11-21T04:42:09;100597.82;;;9.79;75.69
60642;BME280;46837;52.446;-1.930;2023-11-21T04:43:09;100594.10;;;9.79;75.74
60642;BME280;46837;52.446;-1.930;2023-11-21T04:44:09;100595.00;;;9.76;75.55
60642;BME280;46837;52.446;-1.930;2023-11-21T04:45:11;100601.24;;;9.78;75.56
60642;BME280;46837;52.446;-1.930;2023-11-21T04:46:09;100602.38;;;9.77;75.40
60642;BME280;46837;52.446;-1.930;2023-11-21T04:47:09;100606.52;;;9.77;75.42
60642;BME280;46837;52.446;-1.930;2023-11-21T04:48:09;100609.15;;;9.78;75.37
60642;BME280;46837;52.446;-1.930;2023-11-21T04:49:09;100615.93;;;9.79;75.33
60642;BME280;46837;52.446;-1.930;2023-11-21T04:50:09;100615.13;;;9.79;75.10
60642;BME280;46837;52.446;-1.930;2023-11-21T04:51:09;100613.06;;;9.80;75.08
60642;BME280;46837;52.446;-1.930;2023-11-21T04:52:09;100610.23;;;9.77;74.98
60642;BME280;46837;52.446;-1.930;2023-11-21T04:53:09;100620.16;;;9.73;74.87
60642;BME280;46837;52.446;-1.930;2023-11-21T04:54:09;100621.29;;;9.76;75.02
60642;BME280;46837;52.446;-1.930;2023-11-21T04:55:09;100621.75;;;9.77;74.99
60642;BME280;46837;52.446;-1.930;2023-11-21T04:56:09;100623.74;;;9.78;74.83
60642;BME280;46837;52.446;-1.930;2023-11-21T04:57:10;100624.43;;;9.81;74.70
60642;BME280;46837;52.446;-1.930;2023-11-21T04:58:09;100617.99;;;9.81;74.79
60642;BME280;46837;52.446;-1.930;2023-11-21T04:59:09;100625.83;;;9.84;74.76
60642;BME280;46837;52.446;-1.930;2023-11-21T05:00:09;100629.36;;;9.84;74.64
60642;BME280;46837;52.446;-1.930;2023-11-21T05:01:09;100625.72;;;9.80;74.61
60642;BME280;46837;52.446;-1.930;2023-11-21T05:02:09;100626.84;;;9.83;74.65
60642;BME280;46837;52.446;-1.930;2023-11-21T05:03:09;100626.97;;;9.84;74.71
60642;BME280;46837;52.446;-1.930;2023-11-21T05:04:09;100631.18;;;9.84;74.65
60642;BME280;46837;52.446;-1.930;2023-11-21T05:05:09;100632.88;;;9.85;74.71
60642;BME280;46837;52.446;-1.930;2023-11-21T05:06:10;100636.04;;;9.85;74.77
60642;BME280;46837;52.446;-1.930;2023-11-21T05:07:09;100637.23;;;9.84;74.81
60642;BME280;46837;52.446;-1.930;2023-11-21T05:08:09;100639.83;;;9.83;74.86
60642;BME280;46837;52.446;-1.930;2023-11-21T05:09:09;100642.04;;;9.84;74.99
60642;BME280;46837;52.446;-1.930;2023-11-21T05:10:11;100643.76;;;9.82;75.05